sensor_id;sensor_type;location;lat;lon;timestamp;pressure;altitude;pressure_sealevel;temperature;humidity
69306;BME280;56427;51.580;4.656;2023-02-21T00:01:15;102125.72;;;7.37;100.00
69306;BME280;56427;51.580;4.656;2023-02-21T00:03:59;102121.53;;;7.35;100.00
69306;BME280;56427;51.580;4.656;2023-02-21T00:06:44;102125.72;;;7.37;100.00
69306;BME280;56427;51.580;4.656;2023-02-21T00:09:28;102117.16;;;7.37;100.00
69306;BME280;56427;51.580;4.656;2023-02-21T00:12:11;102131.78;;;7.36;100.00
69306;BME280;56427;51.580;4.656;2023-02-21T00:14:55;102129.81;;;7.42;100.00
69306;BME280;56427;51.580;4.656;2023-02-21T00:17:40;102130.06;;;7.37;100.00
69306;BME280;56427;51.580;4.656;2023-02-21T00:20:23;102130.88;;;7.37;100.00
69306;BME280;56427;51.580;4.656;2023-02-21T00:23:08;102127.63;;;7.34;100.00
69306;BME280;56427;51.580;4.656;2023-02-21T00:25:52;102130.06;;;7.37;100.00
69306;BME280;56427;51.580;4.656;2023-02-21T00:28:36;102132.31;;;7.43;100.00
69306;BME280;56427;51.580;4.656;2023-02-21T00:31:23;102129.13;;;7.38;100.00
69306;BME280;56427;51.580;4.656;2023-02-21T00:34:06;102131.78;;;7.36;100.00
69306;BME280;56427;51.580;4.656;2023-02-21T00:36:53;102129.19;;;7.36;100.00
69306;BME280;56427;51.580;4.656;2023-02-21T00:39:37;102127.47;;;7.37;100.00
69306;BME280;56427;51.580;4.656;2023-02-21T00:42:22;102120.63;;;7.36;100.00
69306;BME280;56427;51.580;4.656;2023-02-21T00:45:06;102122.75;;;7.28;100.00
69306;BME280;56427;51.580;4.656;2023-02-21T00:47:50;102117.44;;;7.31;100.00
69306;BME280;56427;51.580;4.656;2023-02-21T00:50:34;102129.28;;;7.35;100.00
69306;BME280;56427;51.580;4.656;2023-02-21T00:53:18;102120.69;;;7.34;100.00
69306;BME280;56427;51.580;4.656;2023-02-21T00:56:01;102131.56;;;7.41;100.00
69306;BME280;56427;51.580;4.656;2023-02-21T00:58:45;102133.38;;;7.39;100.00
69306;BME280;56427;51.580;4.656;2023-02-21T01:01:29;102134.22;;;7.40;100.00
69306;BME280;56427;51.580;4.656;2023-02-21T01:04:13;102123.06;;;7.39;100.00
69306;BME280;56427;51.580;4.656;2023-02-21T01:06:57;102127.31;;;7.40;100.00
69306;BME280;56427;51.580;4.656;2023-02-21T01:09:41;102121.97;;;7.43;100.00
69306;BME280;56427;51.580;4.656;2023-02-21T01:12:25;102117.16;;;7.37;100.00
69306;BME280;56427;51.580;4.656;2023-02-21T01:15:09;102118.72;;;7.40;100.00
69306;BME280;56427;51.580;4.656;2023-02-21T01:17:53;102112.81;;;7.37;100.00
69306;BME280;56427;51.580;4.656;2023-02-21T01:20:37;102118.03;;;7.36;100.00
69306;BME280;56427;51.580;4.656;2023-02-21T01:23:21;102119.78;;;7.35;100.00
69306;BME280;56427;51.580;4.656;2023-02-21T01:26:07;102118.03;;;7.36;100.00
69306;BME280;56427;51.580;4.656;2023-02-21T01:28:51;102113.03;;;7.33;100.00
69306;BME280;56427;51.580;4.656;2023-02-21T01:31:36;102121.59;;;7.33;100.00
69306;BME280;56427;51.580;4.656;2023-02-21T01:34:20;102121.69;;;7.32;100.00
69306;BME280;56427;51.580;4.656;2023-02-21T01:37:04;102114.03;;;7.30;100.00
69306;BME280;56427;51.580;4.656;2023-02-21T01:39:48;102124.28;;;7.32;100.00
69306;BME280;56427;51.580;4.656;2023-02-21T01:42:32;102121.59;;;7.33;100.00
69306;BME280;56427;51.580;4.656;2023-02-21T01:48:04;102118.25;;;7.31;100.00
69306;BME280;56427;51.580;4.656;2023-02-21T01:50:49;102113.63;;;7.38;100.00
69306;BME280;56427;51.580;4.656;2023-02-21T01:53:33;102114.69;;;7.34;100.00
69306;BME280;56427;51.580;4.656;2023-02-21T01:56:17;102110.72;;;7.27;100.00
69306;BME280;56427;51.580;4.656;2023-02-21T01:59:01;102111.44;;;7.30;100.00
69306;BME280;56427;51.580;4.656;2023-02-21T02:04:42;102099.78;;;7.22;100.00
69306;BME280;56427;51.580;4.656;2023-02-21T02:07:26;102105.81;;;7.22;100.00
69306;BME280;56427;51.580;4.656;2023-02-21T02:10:11;102094.03;;;7.16;100.00
69306;BME280;56427;51.580;4.656;2023-02-21T02:24:59;102069.22;;;7.14;100.00
69306;BME280;56427;51.580;4.656;2023-02-21T02:33:55;102077.84;;;7.13;100.00
69306;BME280;56427;51.580;4.656;2023-02-21T02:36:41;102074.19;;;7.17;100.00
69306;BME280;56427;51.580;4.656;2023-02-21T02:42:42;102061.53;;;7.12;100.00
69306;BME280;56427;51.580;4.656;2023-02-21T02:45:20;102064.94;;;7.13;100.00
69306;BME280;56427;51.580;4.656;2023-02-21T02:47:54;102065.00;;;7.11;100.00
69306;BME280;56427;51.580;4.656;2023-02-21T02:50:23;102071.63;;;7.17;100.00
69306;BME280;56427;51.580;4.656;2023-02-21T02:52:51;102062.81;;;7.21;100.00
69306;BME280;56427;51.580;4.656;2023-02-21T02:55:31;102058.88;;;7.14;100.00
69306;BME280;56427;51.580;4.656;2023-02-21T02:57:58;102062.28;;;7.14;100.00
69306;BME280;56427;51.580;4.656;2023-02-21T03:00:25;102052.25;;;7.08;100.00
69306;BME280;56427;51.580;4.656;2023-02-21T03:06:05;102044.50;;;7.08;100.00
69306;BME280;56427;51.580;4.656;2023-02-21T03:10:59;102044.66;;;7.05;100.00
69306;BME280;56427;51.580;4.656;2023-02-21T03:13:52;102052.47;;;7.04;100.00
69306;BME280;56427;51.580;4.656;2023-02-21T03:16:23;102045.59;;;7.04;100.00
69306;BME280;56427;51.580;4.656;2023-02-21T03:19:11;102040.34;;;7.06;100.00
69306;BME280;56427;51.580;4.656;2023-02-21T03:21:45;102040.44;;;7.04;100.00
69306;BME280;56427;51.580;4.656;2023-02-21T03:24:13;102039.19;;;7.11;100.00
69306;BME280;56427;51.580;4.656;2023-02-21T03:26:41;102040.09;;;7.10;100.00
69306;BME280;56427;51.580;4.656;2023-02-21T03:29:09;102041.03;;;7.09;100.00
69306;BME280;56427;51.580;4.656;2023-02-21T03:31:40;102036.00;;;7.06;100.00
69306;BME280;56427;51.580;4.656;2023-02-21T03:34:09;102028.13;;;7.09;100.00
69306;BME280;56427;51.580;4.656;2023-02-21T03:36:36;102021.50;;;7.04;100.00
69306;BME280;56427;51.580;4.656;2023-02-21T03:39:02;102029.31;;;7.02;100.00
69306;BME280;56427;51.580;4.656;2023-02-21T03:41:28;102028.50;;;7.02;100.00
69306;BME280;56427;51.580;4.656;2023-02-21T03:43:53;102032.69;;;7.04;100.00
69306;BME280;56427;51.580;4.656;2023-02-21T03:46:19;102035.34;;;7.03;100.00
69306;BME280;56427;51.580;4.656;2023-02-21T03:48:44;102029.16;;;7.05;100.00
69306;BME280;56427;51.580;4.656;2023-02-21T03:51:10;102031.22;;;6.98;100.00
69306;BME280;56427;51.580;4.656;2023-02-21T03:53:35;102029.63;;;6.96;100.00
69306;BME280;56427;51.580;4.656;2023-02-21T03:56:00;102039.03;;;6.97;100.00
69306;BME280;56427;51.580;4.656;2023-02-21T03:58:26;102033.25;;;6.92;100.00
69306;BME280;56427;51.580;4.656;2023-02-21T04:00:51;102027.06;;;6.96;100.00
69306;BME280;56427;51.580;4.656;2023-02-21T04:03:18;102030.59;;;6.93;100.00
69306;BME280;56427;51.580;4.656;2023-02-21T04:05:43;102018.78;;;6.89;100.00
69306;BME280;56427;51.580;4.656;2023-02-21T04:08:09;102026.44;;;6.91;100.00
69306;BME280;56427;51.580;4.656;2023-02-21T04:10:34;102028.09;;;6.92;100.00
69306;BME280;56427;51.580;4.656;2023-02-21T04:12:59;102029.84;;;6.91;100.00
69306;BME280;56427;51.580;4.656;2023-02-21T04:15:25;102032.44;;;6.91;100.00
69306;BME280;56427;51.580;4.656;2023-02-21T04:17:50;102024.00;;;6.88;100.00
69306;BME280;56427;51.580;4.656;2023-02-21T04:20:15;102027.28;;;6.91;100.00
69306;BME280;56427;51.580;4.656;2023-02-21T04:22:41;102027.34;;;6.90;100.00
69306;BME280;56427;51.580;4.656;2023-02-21T04:25:07;102036.66;;;6.92;100.00
69306;BME280;56427;51.580;4.656;2023-02-21T04:27:32;102030.59;;;6.93;100.00
69306;BME280;56427;51.580;4.656;2023-02-21T04:29:59;102011.88;;;6.90;100.00
69306;BME280;56427;51.580;4.656;2023-02-21T04:32:25;102018.59;;;6.92;100.00
69306;BME280;56427;51.580;4.656;2023-02-21T04:34:51;102015.94;;;6.94;100.00
69306;BME280;56427;51.580;4.656;2023-02-21T04:37:17;102011.66;;;6.94;100.00
69306;BME280;56427;51.580;4.656;2023-02-21T04:39:43;102019.53;;;6.91;100.00
69306;BME280;56427;51.580;4.656;2023-02-21T04:42:08;102016.03;;;6.92;100.00
69306;BME280;56427;51.580;4.656;2023-02-21T04:44:34;102018.59;;;6.92;100.00
69306;BME280;56427;51.580;4.656;2023-02-21T04:46:59;102021.03;;;6.95;100.00
69306;BME280;56427;51.580;4.656;2023-02-21T04:49:26;102016.47;;;7.00;100.00
69306;BME280;56427;51.580;4.656;2023-02-21T04:51:52;102015.88;;;6.95;100.00
69306;BME280;56427;51.580;4.656;2023-02-21T04:54:17;102019.47;;;6.93;100.00
69306;BME280;56427;51.580;4.656;2023-02-21T04:56:42;102016.66;;;6.97;100.00
69306;BME280;56427;51.580;4.656;2023-02-21T04:59:08;102015.94;;;6.94;100.00
69306;BME280;56427;51.580;4.656;2023-02-21T05:01:33;102012.63;;;6.92;100.00
69306;BME280;56427;51.580;4.656;2023-02-21T05:03:59;102016.03;;;6.92;100.00
69306;BME280;56427;51.580;4.656;2023-02-21T05:06:26;102014.44;;;6.90;100.00
69306;BME280;56427;51.580;4.656;2023-02-21T05:08:52;102017.78;;;6.92;100.00
69306;BME280;56427;51.580;4.656;2023-02-21T05:11:18;102020.50;;;6.89;100.00
69306;BME280;56427;51.580;4.656;2023-02-21T05:13:44;102014.59;;;6.87;100.00
69306;BME280;56427;51.580;4.656;2023-02-21T05:16:10;102006.78;;;6.88;100.00
69306;BME280;56427;51.580;4.656;2023-02-21T05:18:36;102011.88;;;6.90;100.00
69306;BME280;56427;51.580;4.656;2023-02-21T05:21:04;102012.84;;;6.87;100.00
69306;BME280;56427;51.580;4.656;2023-02-21T05:23:30;102012.75;;;6.89;100.00
69306;BME280;56427;51.580;4.656;2023-02-21T05:26:12;102011.72;;;6.93;100.00
69306;BME280;56427;51.580;4.656;2023-02-21T05:28:38;102009.28;;;6.90;100.00
69306;BME280;56427;51.580;4.656;2023-02-21T05:31:05;102009.44;;;6.87;100.00
69306;BME280;56427;51.580;4.656;2023-02-21T05:33:30;102007.59;;;6.89;100.00
69306;BME280;56427;51.580;4.656;2023-02-21T05:35:57;102007.91;;;7.00;100.00
69306;BME280;56427;51.580;4.656;2023-02-21T05:38:23;102015.94;;;6.94;100.00
69306;BME280;56427;51.580;4.656;2023-02-21T05:40:49;102014.22;;;6.94;100.00
69306;BME280;56427;51.580;4.656;2023-02-21T05:43:14;102021.81;;;6.97;100.00
69306;BME280;56427;51.580;4.656;2023-02-21T05:45:40;102011.50;;;6.97;100.00
69306;BME280;56427;51.580;4.656;2023-02-21T05:48:05;102014.06;;;6.97;100.00
69306;BME280;56427;51.580;4.656;2023-02-21T05:50:31;102017.56;;;6.96;100.00
69306;BME280;56427;51.580;4.656;2023-02-21T05:52:57;102005.19;;;7.03;100.00
69306;BME280;56427;51.580;4.656;2023-02-21T05:55:23;102003.13;;;6.92;100.00
69306;BME280;56427;51.580;4.656;2023-02-21T05:57:49;102012.53;;;6.93;100.00
69306;BME280;56427;51.580;4.656;2023-02-21T06:00:20;101999.78;;;6.90;100.00
69306;BME280;56427;51.580;4.656;2023-02-21T06:02:45;102001.47;;;6.91;100.00
69306;BME280;56427;51.580;4.656;2023-02-21T06:05:12;102005.88;;;6.89;100.00
69306;BME280;56427;51.580;4.656;2023-02-21T06:07:37;101999.84;;;6.89;100.00
69306;BME280;56427;51.580;4.656;2023-02-21T06:10:03;102005.88;;;6.89;100.00
69306;BME280;56427;51.580;4.656;2023-02-21T06:12:29;102004.03;;;6.91;100.00
69306;BME280;56427;51.580;4.656;2023-02-21T06:14:54;102008.53;;;6.88;100.00
69306;BME280;56427;51.580;4.656;2023-02-21T06:17:20;102015.56;;;6.84;100.00
69306;BME280;56427;51.580;4.656;2023-02-21T06:19:45;102014.59;;;6.87;100.00
69306;BME280;56427;51.580;4.656;2023-02-21T06:22:10;102011.31;;;6.83;100.00
69306;BME280;56427;51.580;4.656;2023-02-21T06:24:36;102012.06;;;6.85;100.00
69306;BME280;56427;51.580;4.656;2023-02-21T06:27:02;102005.16;;;6.86;100.00
69306;BME280;56427;51.580;4.656;2023-02-21T06:29:27;102004.94;;;6.90;100.00
69306;BME280;56427;51.580;4.656;2023-02-21T06:31:59;102004.25;;;6.87;100.00
69306;BME280;56427;51.580;4.656;2023-02-21T06:34:26;102007.06;;;6.82;100.00
69306;BME280;56427;51.580;4.656;2023-02-21T06:36:53;102012.63;;;6.92;100.00
69306;BME280;56427;51.580;4.656;2023-02-21T06:39:18;102019.16;;;6.99;100.00
69306;BME280;56427;51.580;4.656;2023-02-21T06:41:44;102018.59;;;6.92;100.00
69306;BME280;56427;51.580;4.656;2023-02-21T06:44:10;102013.44;;;6.92;100.00
69306;BME280;56427;51.580;4.656;2023-02-21T06:46:36;102021.09;;;6.94;100.00
69306;BME280;56427;51.580;4.656;2023-02-21T06:49:03;102013.53;;;6.91;100.00
69306;BME280;56427;51.580;4.656;2023-02-21T06:51:36;102015.13;;;6.93;100.00
69306;BME280;56427;51.580;4.656;2023-02-21T06:54:02;102015.88;;;6.95;100.00
69306;BME280;56427;51.580;4.656;2023-02-21T06:56:28;102020.28;;;6.93;100.00
69306;BME280;56427;51.580;4.656;2023-02-21T06:58:54;102016.66;;;6.97;100.00
69306;BME280;56427;51.580;4.656;2023-02-21T07:01:20;102019.06;;;7.00;100.00
69306;BME280;56427;51.580;4.656;2023-02-21T07:03:47;102021.09;;;6.94;100.00
69306;BME280;56427;51.580;4.656;2023-02-21T07:06:12;102013.75;;;7.04;100.00
69306;BME280;56427;51.580;4.656;2023-02-21T07:08:38;102021.44;;;7.05;100.00
69306;BME280;56427;51.580;4.656;2023-02-21T07:11:04;102014.97;;;6.96;100.00
69306;BME280;56427;51.580;4.656;2023-02-21T07:13:30;102017.34;;;7.01;100.00
69306;BME280;56427;51.580;4.656;2023-02-21T07:15:55;102017.34;;;7.01;100.00
69306;BME280;56427;51.580;4.656;2023-02-21T07:18:21;102023.47;;;6.98;100.00
69306;BME280;56427;51.580;4.656;2023-02-21T07:20:46;102017.13;;;7.06;100.00
69306;BME280;56427;51.580;4.656;2023-02-21T07:23:11;102024.06;;;7.04;100.00
69306;BME280;56427;51.580;4.656;2023-02-21T07:25:37;102030.09;;;7.04;100.00
69306;BME280;56427;51.580;4.656;2023-02-21T07:28:02;102035.00;;;7.09;100.00
69306;BME280;56427;51.580;4.656;2023-02-21T07:30:28;102036.16;;;7.03;100.00
69306;BME280;56427;51.580;4.656;2023-02-21T07:32:53;102030.31;;;6.99;100.00
69306;BME280;56427;51.580;4.656;2023-02-21T07:35:19;102036.53;;;6.95;100.00
69306;BME280;56427;51.580;4.656;2023-02-21T07:37:44;102031.28;;;6.97;100.00
69306;BME280;56427;51.580;4.656;2023-02-21T07:40:09;102045.59;;;7.04;100.00
69306;BME280;56427;51.580;4.656;2023-02-21T07:42:35;102041.25;;;7.05;100.00
69306;BME280;56427;51.580;4.656;2023-02-21T07:45:00;102043.97;;;7.02;100.00
69306;BME280;56427;51.580;4.656;2023-02-21T07:47:26;102038.00;;;7.01;100.00
69306;BME280;56427;51.580;4.656;2023-02-21T07:49:52;102035.34;;;7.03;100.00
69306;BME280;56427;51.580;4.656;2023-02-21T07:52:19;102039.56;;;7.04;100.00
69306;BME280;56427;51.580;4.656;2023-02-21T07:54:45;102040.28;;;7.07;100.00
69306;BME280;56427;51.580;4.656;2023-02-21T07:57:10;102042.16;;;7.04;100.00
69306;BME280;56427;51.580;4.656;2023-02-21T07:59:35;102036.75;;;7.08;100.00
69306;BME280;56427;51.580;4.656;2023-02-21T08:02:01;102029.78;;;7.10;100.00
69306;BME280;56427;51.580;4.656;2023-02-21T08:04:26;102025.38;;;7.12;100.00
69306;BME280;56427;51.580;4.656;2023-02-21T08:06:57;102033.06;;;7.14;100.00
69306;BME280;56427;51.580;4.656;2023-02-21T08:09:23;102043.47;;;7.12;100.00
69306;BME280;56427;51.580;4.656;2023-02-21T08:11:48;102042.84;;;7.25;100.00
69306;BME280;56427;51.580;4.656;2023-02-21T08:14:13;102036.94;;;7.23;100.00
69306;BME280;56427;51.580;4.656;2023-02-21T08:16:38;102034.28;;;7.24;100.00
69306;BME280;56427;51.580;4.656;2023-02-21T08:19:04;102032.53;;;7.07;100.00
69306;BME280;56427;51.580;4.656;2023-02-21T08:21:29;102032.75;;;7.20;100.00
69306;BME280;56427;51.580;4.656;2023-02-21T08:23:54;102033.66;;;7.19;100.00
69306;BME280;56427;51.580;4.656;2023-02-21T08:26:21;102025.91;;;7.19;100.00
69306;BME280;56427;51.580;4.656;2023-02-21T08:28:46;102026.75;;;7.19;100.00
69306;BME280;56427;51.580;4.656;2023-02-21T08:31:12;102034.94;;;7.28;100.00
69306;BME280;56427;51.580;4.656;2023-02-21T08:33:38;102022.03;;;7.10;100.00
69306;BME280;56427;51.580;4.656;2023-02-21T08:36:04;102029.31;;;7.19;100.00
69306;BME280;56427;51.580;4.656;2023-02-21T08:38:29;102015.00;;;7.14;100.00
69306;BME280;56427;51.580;4.656;2023-02-21T08:40:55;102025.81;;;7.38;100.00
69306;BME280;56427;51.580;4.656;2023-02-21T08:43:22;102022.19;;;7.42;100.00
69306;BME280;56427;51.580;4.656;2023-02-21T08:45:47;102011.19;;;7.39;100.00
69306;BME280;56427;51.580;4.656;2023-02-21T08:48:12;102018.47;;;7.30;100.00
69306;BME280;56427;51.580;4.656;2023-02-21T08:50:37;102013.97;;;7.16;100.00
69306;BME280;56427;51.580;4.656;2023-02-21T08:53:03;102017.25;;;7.20;100.00
69306;BME280;56427;51.580;4.656;2023-02-21T08:55:28;102020.81;;;7.35;100.00
69306;BME280;56427;51.580;4.656;2023-02-21T08:57:53;102019.97;;;7.34;100.00
69306;BME280;56427;51.580;4.656;2023-02-21T09:00:21;102011.94;;;7.41;100.00
69306;BME280;56427;51.580;4.656;2023-02-21T09:02:48;102014.50;;;7.41;100.00
69306;BME280;56427;51.580;4.656;2023-02-21T09:05:17;102007.88;;;7.35;100.00
69306;BME280;56427;51.580;4.656;2023-02-21T09:07:43;102011.78;;;7.26;100.00
69306;BME280;56427;51.580;4.656;2023-02-21T09:10:11;102008.53;;;7.23;100.00
69306;BME280;56427;51.580;4.656;2023-02-21T09:12:37;102009.94;;;7.28;100.00
69306;BME280;56427;51.580;4.656;2023-02-21T09:15:03;102002.19;;;7.28;100.00
69306;BME280;56427;51.580;4.656;2023-02-21T09:17:29;102002.09;;;7.14;100.00
69306;BME280;56427;51.580;4.656;2023-02-21T09:20:00;101997.28;;;7.24;100.00
69306;BME280;56427;51.580;4.656;2023-02-21T09:22:25;102000.06;;;7.36;100.00
69306;BME280;56427;51.580;4.656;2023-02-21T09:24:51;101997.19;;;7.43;100.00
69306;BME280;56427;51.580;4.656;2023-02-21T09:27:17;102000.63;;;7.26;100.00
69306;BME280;56427;51.580;4.656;2023-02-21T09:29:42;102000.50;;;7.45;100.00
69306;BME280;56427;51.580;4.656;2023-02-21T09:32:08;101981.53;;;7.28;100.00
69306;BME280;56427;51.580;4.656;2023-02-21T09:34:33;101999.63;;;7.28;100.00
69306;BME280;56427;51.580;4.656;2023-02-21T09:37:03;101998.63;;;7.31;100.00
69306;BME280;56427;51.580;4.656;2023-02-21T09:39:30;101997.63;;;7.33;100.00
69306;BME280;56427;51.580;4.656;2023-02-21T09:41:55;102005.22;;;7.36;100.00
69306;BME280;56427;51.580;4.656;2023-02-21T09:44:26;101997.34;;;7.40;100.00
69306;BME280;56427;51.580;4.656;2023-02-21T09:46:57;102005.50;;;7.32;100.00
69306;BME280;56427;51.580;4.656;2023-02-21T09:49:31;101994.81;;;7.38;100.00
69306;BME280;56427;51.580;4.656;2023-02-21T09:51:59;102003.47;;;7.54;100.00
69306;BME280;56427;51.580;4.656;2023-02-21T09:54:33;101996.94;;;7.47;100.00
69306;BME280;56427;51.580;4.656;2023-02-21T09:57:01;101986.84;;;7.43;100.00
69306;BME280;56427;51.580;4.656;2023-02-21T09:59:28;101997.56;;;7.35;100.00
69306;BME280;56427;51.580;4.656;2023-02-21T10:07:21;101999.94;;;7.73;100.00
69306;BME280;56427;51.580;4.656;2023-02-21T10:12:34;101998.06;;;7.59;100.00
69306;BME280;56427;51.580;4.656;2023-02-21T10:15:32;101994.72;;;7.57;100.00
69306;BME280;56427;51.580;4.656;2023-02-21T10:21:32;101989.06;;;7.66;100.00
69306;BME280;56427;51.580;4.656;2023-02-21T10:24:01;101992.69;;;7.46;100.00
69306;BME280;56427;51.580;4.656;2023-02-21T10:26:32;101995.13;;;7.49;100.00
69306;BME280;56427;51.580;4.656;2023-02-21T10:28:59;101989.91;;;7.67;100.00
69306;BME280;56427;51.580;4.656;2023-02-21T10:31:30;101995.09;;;7.67;100.00
69306;BME280;56427;51.580;4.656;2023-02-21T10:33:58;101999.66;;;7.62;100.00
69306;BME280;56427;51.580;4.656;2023-02-21T10:36:25;101988.31;;;7.64;100.00
69306;BME280;56427;51.580;4.656;2023-02-21T10:39:08;101986.31;;;7.69;100.00
69306;BME280;56427;51.580;4.656;2023-02-21T10:41:38;101984.38;;;7.57;100.00
69306;BME280;56427;51.580;4.656;2023-02-21T10:44:19;101978.28;;;7.58;100.00
69306;BME280;56427;51.580;4.656;2023-02-21T10:46:57;101987.19;;;7.70;100.00
69306;BME280;56427;51.580;4.656;2023-02-21T10:49:28;101992.56;;;7.65;100.00
69306;BME280;56427;51.580;4.656;2023-02-21T10:52:24;101988.81;;;7.55;100.00
69306;BME280;56427;51.580;4.656;2023-02-21T10:55:20;101976.25;;;7.65;100.00
69306;BME280;56427;51.580;4.656;2023-02-21T10:57:50;101983.41;;;7.76;100.00
69306;BME280;56427;51.580;4.656;2023-02-21T11:00:36;101975.50;;;7.79;100.00
69306;BME280;56427;51.580;4.656;2023-02-21T11:05:51;101978.44;;;7.88;100.00
69306;BME280;56427;51.580;4.656;2023-02-21T11:08:37;101967.84;;;7.77;100.00
69306;BME280;56427;51.580;4.656;2023-02-21T11:11:03;101965.94;;;7.47;100.00
69306;BME280;56427;51.580;4.656;2023-02-21T11:13:29;101969.41;;;7.64;100.00
69306;BME280;56427;51.580;4.656;2023-02-21T11:16:10;101973.66;;;7.81;100.00
69306;BME280;56427;51.580;4.656;2023-02-21T11:18:36;101967.69;;;7.80;100.00
69306;BME280;56427;51.580;4.656;2023-02-21T11:21:13;101966.66;;;7.83;100.00
69306;BME280;56427;51.580;4.656;2023-02-21T11:23:56;101963.22;;;7.66;100.00
69306;BME280;56427;51.580;4.656;2023-02-21T11:26:28;101960.91;;;7.78;100.00
69306;BME280;56427;51.580;4.656;2023-02-21T11:29:07;101957.41;;;7.79;100.00
69306;BME280;56427;51.580;4.656;2023-02-21T11:31:34;101954.97;;;7.60;100.00
69306;BME280;56427;51.580;4.656;2023-02-21T11:34:05;101951.31;;;7.64;100.00
69306;BME280;56427;51.580;4.656;2023-02-21T11:36:36;101944.91;;;7.87;100.00
69306;BME280;56427;51.580;4.656;2023-02-21T11:39:18;101936.69;;;7.96;100.00
69306;BME280;56427;51.580;4.656;2023-02-21T11:41:55;101944.66;;;7.76;100.00
69306;BME280;56427;51.580;4.656;2023-02-21T11:44:25;101944.97;;;7.69;100.00
69306;BME280;56427;51.580;4.656;2023-02-21T11:47:16;101946.41;;;7.75;100.00
69306;BME280;56427;51.580;4.656;2023-02-21T11:49:59;101936.97;;;7.58;100.00
69306;BME280;56427;51.580;4.656;2023-02-21T11:52:33;101931.56;;;7.63;100.00
69306;BME280;56427;51.580;4.656;2023-02-21T11:55:01;101943.22;;;7.54;100.00
69306;BME280;56427;51.580;4.656;2023-02-21T11:57:49;101939.31;;;7.63;100.00
69306;BME280;56427;51.580;4.656;2023-02-21T12:00:50;101931.16;;;7.70;100.00
69306;BME280;56427;51.580;4.656;2023-02-21T12:04:14;101924.31;;;7.53;100.00
69306;BME280;56427;51.580;4.656;2023-02-21T12:06:56;101923.44;;;7.53;100.00
69306;BME280;56427;51.580;4.656;2023-02-21T12:09:31;101926.31;;;7.64;100.00
69306;BME280;56427;51.580;4.656;2023-02-21T12:12:14;101928.75;;;7.83;100.00
69306;BME280;56427;51.580;4.656;2023-02-21T12:17:36;101916.47;;;7.55;100.00
69306;BME280;56427;51.580;4.656;2023-02-21T12:20:17;101918.56;;;7.64;100.00
69306;BME280;56427;51.580;4.656;2023-02-21T12:23:07;101911.47;;;7.84;100.00
69306;BME280;56427;51.580;4.656;2023-02-21T12:25:49;101911.75;;;7.63;100.00
69306;BME280;56427;51.580;4.656;2023-02-21T12:34:11;101898.47;;;7.69;100.00
69306;BME280;56427;51.580;4.656;2023-02-21T12:41:55;101899.06;;;7.59;100.00
69306;BME280;56427;51.580;4.656;2023-02-21T12:47:25;101891.47;;;7.55;100.00
69306;BME280;56427;51.580;4.656;2023-02-21T12:50:15;101888.16;;;7.53;100.00
69306;BME280;56427;51.580;4.656;2023-02-21T12:58:18;101893.56;;;7.81;100.00
69306;BME280;56427;51.580;4.656;2023-02-21T13:00:56;101892.22;;;7.73;100.00
69306;BME280;56427;51.580;4.656;2023-02-21T13:15:05;101894.59;;;7.45;100.00
69306;BME280;56427;51.580;4.656;2023-02-21T13:17:34;101888.34;;;7.33;100.00
69306;BME280;56427;51.580;4.656;2023-02-21T13:20:04;101882.56;;;7.45;100.00
69306;BME280;56427;51.580;4.656;2023-02-21T13:26:14;101881.53;;;7.32;100.00
69306;BME280;56427;51.580;4.656;2023-02-21T13:28:41;101873.16;;;7.27;100.00
69306;BME280;56427;51.580;4.656;2023-02-21T13:31:18;101871.88;;;7.35;100.00
69306;BME280;56427;51.580;4.656;2023-02-21T13:33:54;101870.44;;;7.30;100.00
69306;BME280;56427;51.580;4.656;2023-02-21T13:38:46;101866.81;;;7.16;100.00
69306;BME280;56427;51.580;4.656;2023-02-21T13:41:24;101861.94;;;7.28;100.00
69306;BME280;56427;51.580;4.656;2023-02-21T13:43:51;101868.44;;;7.19;100.00
69306;BME280;56427;51.580;4.656;2023-02-21T13:49:44;101857.75;;;7.09;100.00
69306;BME280;56427;51.580;4.656;2023-02-21T13:52:26;101858.69;;;7.24;100.00
69306;BME280;56427;51.580;4.656;2023-02-21T13:57:35;101848.44;;;7.23;100.00
69306;BME280;56427;51.580;4.656;2023-02-21T14:08:30;101843.88;;;7.28;100.00
69306;BME280;56427;51.580;4.656;2023-02-21T14:13:59;101826.44;;;7.31;100.00
69306;BME280;56427;51.580;4.656;2023-02-21T14:16:36;101826.28;;;7.34;100.00
69306;BME280;56427;51.580;4.656;2023-02-21T14:19:17;101821.53;;;7.43;100.00
69306;BME280;56427;51.580;4.656;2023-02-21T14:21:46;101827.47;;;7.45;100.00
69306;BME280;56427;51.580;4.656;2023-02-21T14:24:15;101828.47;;;7.42;100.00
69306;BME280;56427;51.580;4.656;2023-02-21T14:31:56;101824.53;;;7.19;100.00
69306;BME280;56427;51.580;4.656;2023-02-21T14:45:43;101806.81;;;7.29;100.00
69306;BME280;56427;51.580;4.656;2023-02-21T14:51:16;101806.88;;;7.43;100.00
69306;BME280;56427;51.580;4.656;2023-02-21T14:59:26;101806.72;;;7.30;100.00
69306;BME280;56427;51.580;4.656;2023-02-21T15:10:18;101802.94;;;7.20;100.00
69306;BME280;56427;51.580;4.656;2023-02-21T15:12:51;101794.56;;;7.32;100.00
69306;BME280;56427;51.580;4.656;2023-02-21T15:15:26;101796.13;;;7.19;100.00
69306;BME280;56427;51.580;4.656;2023-02-21T15:20:24;101794.13;;;7.08;100.00
69306;BME280;56427;51.580;4.656;2023-02-21T15:22:59;101799.19;;;7.10;100.00
69306;BME280;56427;51.580;4.656;2023-02-21T15:25:24;101803.53;;;7.09;100.00
69306;BME280;56427;51.580;4.656;2023-02-21T15:32:56;101808.84;;;7.06;100.00
69306;BME280;56427;51.580;4.656;2023-02-21T15:35:26;101793.22;;;7.09;100.00
69306;BME280;56427;51.580;4.656;2023-02-21T15:37:55;101803.84;;;7.03;100.00
69306;BME280;56427;51.580;4.656;2023-02-21T15:40:23;101797.88;;;7.18;100.00